Time;durP1;ratioP1;P1;durP2;ratioP2;P2;SDS_P1;SDS_P2;PMS_P1;PMS_P2;Temp;Humidity;BMP_temperature;BMP_pressure;BME280_temperature;BME280_humidity;BME280_pressure;Samples;Min_cycle;Max_cycle;Signal;HPM_P1;HPM_P2
2021/06/20 00:02:05;;;;;;;14.05;11.52;;;26.30;79.60;;;;;;5119641;27;20073;-69
2021/06/20 00:04:49;;;;;;;12.45;11.15;;;26.20;79.90;;;;;;5129023;27;20375;-68
2021/06/20 00:07:35;;;;;;;13.20;11.23;;;26.10;79.80;;;;;;5117531;27;20084;-68
2021/06/20 00:10:25;;;;;;;13.77;11.02;;;26.10;79.90;;;;;;5130084;27;20774;-68
2021/06/20 00:13:09;;;;;;;14.52;11.70;;;26.10;79.90;;;;;;5112337;28;20043;-68
2021/06/20 00:15:53;;;;;;;;;;;26.10;79.90;;;;;;5114208;28;20030;-68
2021/06/20 00:18:19;;;;;;;15.90;10.82;;;26.00;79.30;;;;;;5114461;28;20100;-68
2021/06/20 00:21:03;;;;;;;15.57;11.10;;;25.90;79.70;;;;;;5112851;28;20076;-67
2021/06/20 00:23:48;;;;;;;12.32;10.32;;;25.90;80.00;;;;;;5094419;28;20078;-68
2021/06/20 00:26:32;;;;;;;15.43;10.98;;;25.90;80.10;;;;;;5110548;28;20418;-67
2021/06/20 00:29:16;;;;;;;19.35;11.25;;;25.90;80.10;;;;;;5114608;28;20467;-67
2021/06/20 00:32:00;;;;;;;12.52;10.00;;;25.80;80.20;;;;;;5116425;27;20092;-68
2021/06/20 00:34:44;;;;;;;12.73;10.52;;;25.80;80.10;;;;;;5114457;28;20031;-68
2021/06/20 00:37:28;;;;;;;16.33;11.00;;;25.70;80.30;;;;;;5124251;27;20064;-68
2021/06/20 00:40:13;;;;;;;13.30;10.68;;;25.70;80.70;;;;;;5134818;27;20079;-68
2021/06/20 00:42:57;;;;;;;13.13;10.98;;;25.60;80.90;;;;;;5115469;27;20078;-67
2021/06/20 00:45:41;;;;;;;15.23;10.55;;;25.60;81.30;;;;;;5113926;28;20080;-67
2021/06/20 00:48:26;;;;;;;13.68;10.80;;;25.60;81.30;;;;;;5118298;27;20288;-68
2021/06/20 00:51:10;;;;;;;15.00;11.10;;;25.50;81.40;;;;;;5112484;28;20042;-68
2021/06/20 00:53:53;;;;;;;13.40;10.20;;;25.50;81.40;;;;;;5098934;28;20030;-67
2021/06/20 00:56:39;;;;;;;12.25;10.35;;;25.50;81.60;;;;;;5111423;28;20034;-68
2021/06/20 00:59:23;;;;;;;15.40;10.90;;;25.40;81.70;;;;;;5118302;27;20062;-68
2021/06/20 01:02:07;;;;;;;14.25;10.77;;;25.40;82.20;;;;;;5131222;27;20088;-68
2021/06/20 01:04:51;;;;;;;14.43;11.13;;;25.40;82.40;;;;;;5134186;27;20058;-68
2021/06/20 01:07:36;;;;;;;13.07;10.65;;;25.40;82.40;;;;;;5130035;27;20088;-68
2021/06/20 01:10:27;;;;;;;13.25;10.70;;;25.30;82.60;;;;;;5134538;27;20395;-67
2021/06/20 01:13:16;;;;;;;12.90;11.35;;;25.30;83.00;;;;;;5114369;27;20624;-67
2021/06/20 01:16:00;;;;;;;11.80;10.60;;;25.20;83.10;;;;;;5131563;27;20039;-67
2021/06/20 01:18:45;;;;;;;;;;;25.20;83.20;;;;;;5093760;28;20080;-67
2021/06/20 01:21:29;;;;;;;15.40;11.40;;;25.20;82.50;;;;;;5097419;28;19996;-67
2021/06/20 01:24:14;;;;;;;;;;;25.20;83.40;;;;;;5113878;28;20066;-67
2021/06/20 01:26:58;;;;;;;17.40;11.95;;;25.20;82.90;;;;;;5119492;27;19964;-68
2021/06/20 01:29:47;;;;;;;16.02;12.63;;;25.20;83.40;;;;;;5133892;27;20045;-67
2021/06/20 01:32:32;;;;;;;14.90;11.90;;;25.20;83.80;;;;;;5118194;27;20038;-68
2021/06/20 01:35:16;;;;;;;13.80;11.90;;;25.10;84.00;;;;;;5113494;28;20455;-67
2021/06/20 01:38:03;;;;;;;14.60;11.68;;;25.10;84.20;;;;;;5128644;27;20054;-68
2021/06/20 01:40:47;;;;;;;12.90;11.57;;;25.10;84.20;;;;;;5124167;27;20046;-68
2021/06/20 01:43:31;;;;;;;13.25;11.32;;;25.10;84.30;;;;;;5111971;28;20077;-68
2021/06/20 01:46:16;;;;;;;14.13;11.80;;;25.10;84.30;;;;;;5113492;28;20095;-68
2021/06/20 01:49:00;;;;;;;;;;;25.10;84.40;;;;;;5133512;27;20160;-68
2021/06/20 01:51:45;;;;;;;12.38;11.05;;;25.10;83.50;;;;;;5129171;27;19910;-68
2021/06/20 01:54:36;;;;;;;15.77;11.68;;;25.00;84.20;;;;;;5112692;28;20054;-68
2021/06/20 01:57:24;;;;;;;15.40;11.77;;;25.10;84.70;;;;;;5111569;28;20411;-68
2021/06/20 02:00:11;;;;;;;14.60;12.43;;;25.00;84.70;;;;;;5112795;28;20159;-68
2021/06/20 02:02:55;;;;;;;14.20;12.10;;;25.00;84.90;;;;;;5111117;27;20376;-68
2021/06/20 02:05:42;;;;;;;18.85;12.70;;;25.00;85.00;;;;;;5113545;27;20253;-68
2021/06/20 02:08:27;;;;;;;14.25;12.25;;;25.00;85.00;;;;;;5129418;27;20433;-68
2021/06/20 02:11:11;;;;;;;16.83;11.68;;;25.00;85.00;;;;;;5133245;27;20047;-68
2021/06/20 02:13:55;;;;;;;14.90;12.13;;;25.00;85.00;;;;;;5112108;28;20043;-68
2021/06/20 02:16:39;;;;;;;15.75;12.48;;;25.00;84.90;;;;;;5095488;28;20464;-68
2021/06/20 02:19:23;;;;;;;16.10;12.82;;;25.00;85.00;;;;;;5132799;27;20539;-68
2021/06/20 02:22:07;;;;;;;18.92;13.13;;;25.00;85.40;;;;;;5125240;27;20508;-68
2021/06/20 02:24:51;;;;;;;15.45;13.15;;;25.00;84.90;;;;;;5111998;28;20042;-68
2021/06/20 02:27:36;;;;;;;;;;;25.00;85.00;;;;;;5104563;27;20050;-68
2021/06/20 02:30:21;;;;;;;20.33;14.95;;;25.00;84.30;;;;;;5132337;27;20359;-68
2021/06/20 02:33:06;;;;;;;17.60;13.55;;;24.90;85.00;;;;;;5105895;27;20143;-68
2021/06/20 02:35:50;;;;;;;16.35;13.20;;;24.90;85.20;;;;;;5120649;27;20042;-68
2021/06/20 02:38:34;;;;;;;16.35;13.45;;;24.90;85.30;;;;;;5110017;28;20039;-68
2021/06/20 02:41:18;;;;;;;17.48;13.60;;;24.90;85.40;;;;;;5112191;28;20030;-66
2021/06/20 02:44:02;;;;;;;;;;;24.90;85.60;;;;;;5092225;28;20509;-67
2021/06/20 02:46:47;;;;;;;17.55;13.18;;;24.90;84.60;;;;;;5108902;27;19934;-67
2021/06/20 02:49:32;;;;;;;16.00;13.50;;;24.90;85.50;;;;;;5101111;28;20030;-68
2021/06/20 02:52:17;;;;;;;16.23;13.77;;;24.90;85.70;;;;;;5110573;28;20051;-68
2021/06/20 02:55:02;;;;;;;16.98;13.77;;;24.90;85.80;;;;;;5111804;28;20073;-68
2021/06/20 02:57:46;;;;;;;15.75;13.65;;;24.80;85.90;;;;;;5119574;27;20127;-60
2021/06/20 03:00:30;;;;;;;15.98;13.80;;;24.90;86.00;;;;;;5132238;27;20418;-61
2021/06/20 03:03:14;;;;;;;18.15;15.02;;;24.90;85.80;;;;;;5126689;27;20046;-61
2021/06/20 03:05:58;;;;;;;17.77;14.25;;;25.00;85.80;;;;;;5121025;28;20050;-61
2021/06/20 03:08:42;;;;;;;16.90;14.73;;;25.00;85.90;;;;;;5109966;28;20043;-61
2021/06/20 03:11:26;;;;;;;15.90;13.98;;;24.90;85.90;;;;;;5110590;28;20050;-61
2021/06/20 03:14:15;;;;;;;17.77;14.45;;;25.00;86.00;;;;;;5091118;28;20038;-62
2021/06/20 03:16:59;;;;;;;16.27;13.38;;;25.00;85.90;;;;;;5097461;28;20612;-62
2021/06/20 03:19:44;;;;;;;;;;;25.10;85.90;;;;;;5132440;28;20397;-62
2021/06/20 03:22:28;;;;;;;19.38;13.98;;;25.10;85.10;;;;;;5121176;28;19915;-61
2021/06/20 03:25:12;;;;;;;16.63;13.82;;;25.10;85.60;;;;;;5096164;28;20042;-61
2021/06/20 03:27:57;;;;;;;16.13;14.00;;;25.10;85.80;;;;;;5108948;28;20034;-59
2021/06/20 03:30:41;;;;;;;16.48;14.82;;;25.10;86.30;;;;;;5110904;28;20050;-59
2021/06/20 03:33:24;;;;;;;15.30;12.30;;;25.20;85.80;;;;;;5109908;28;20080;-63
2021/06/20 03:36:09;;;;;;;18.67;14.07;;;25.20;85.60;;;;;;5111906;28;20035;-63
2021/06/20 03:38:53;;;;;;;14.02;12.52;;;25.30;85.70;;;;;;5131425;27;20111;-63
2021/06/20 03:41:38;;;;;;;;;;;25.40;85.60;;;;;;5114330;28;20092;-65
2021/06/20 03:44:22;;;;;;;15.60;12.75;;;25.40;85.20;;;;;;5115858;28;19910;-65
2021/06/20 03:47:06;;;;;;;26.42;13.77;;;25.50;85.20;;;;;;5113889;28;20065;-62
2021/06/20 03:49:50;;;;;;;15.95;14.02;;;25.60;85.30;;;;;;5115353;28;20047;-64
2021/06/20 03:52:36;;;;;;;16.30;13.32;;;25.60;85.20;;;;;;5122140;27;20042;-60
2021/06/20 03:55:20;;;;;;;20.15;13.93;;;25.60;85.10;;;;;;5131736;27;20124;-64
2021/06/20 03:58:06;;;;;;;14.77;13.15;;;25.60;85.00;;;;;;5112428;27;20088;-63
2021/06/20 04:00:50;;;;;;;17.77;14.65;;;25.70;85.00;;;;;;5115167;28;20034;-62
2021/06/20 04:03:34;;;;;;;15.15;13.02;;;25.60;84.90;;;;;;5105968;27;20398;-61
2021/06/20 04:06:18;;;;;;;13.77;12.35;;;25.60;84.80;;;;;;5087073;28;20043;-63
2021/06/20 04:09:03;;;;;;;17.30;13.93;;;25.70;84.70;;;;;;5100677;27;20038;-74
2021/06/20 04:11:49;;;;;;;15.43;13.23;;;25.70;84.90;;;;;;5129411;27;20024;-73
2021/06/20 04:14:34;;;;;;;16.95;13.50;;;25.70;84.60;;;;;;5115968;27;20505;-72
2021/06/20 04:17:22;;;;;;;15.60;12.95;;;25.70;84.70;;;;;;5113103;28;20483;-74
2021/06/20 04:20:11;;;;;;;16.23;13.40;;;25.70;85.00;;;;;;5113791;27;20353;-75
2021/06/20 04:22:57;;;;;;;15.73;13.93;;;25.70;84.70;;;;;;5113287;27;20027;-72
2021/06/20 04:25:43;;;;;;;14.98;13.38;;;25.70;85.00;;;;;;5112319;28;20083;-73
2021/06/20 04:28:29;;;;;;;14.60;13.13;;;25.70;85.00;;;;;;5114159;27;20152;-71
2021/06/20 04:31:14;;;;;;;15.07;13.48;;;25.80;84.60;;;;;;5113187;28;20105;-73
2021/06/20 04:34:00;;;;;;;15.43;13.15;;;25.80;84.60;;;;;;5097644;28;20055;-73
2021/06/20 04:36:47;;;;;;;15.70;12.75;;;25.90;84.80;;;;;;5112363;27;20063;-74
2021/06/20 04:39:33;;;;;;;15.63;13.90;;;25.90;84.30;;;;;;5132723;27;20049;-73
2021/06/20 04:42:21;;;;;;;16.20;14.20;;;26.00;84.90;;;;;;5123855;27;20394;-73
2021/06/20 04:45:08;;;;;;;18.65;14.13;;;26.00;84.60;;;;;;5112137;28;20028;-73
2021/06/20 04:47:54;;;;;;;17.40;14.13;;;26.00;84.50;;;;;;5111014;28;20035;-74
2021/06/20 04:50:40;;;;;;;16.10;14.43;;;26.10;84.30;;;;;;5100552;27;20054;-73
2021/06/20 04:53:26;;;;;;;15.93;14.15;;;26.20;84.00;;;;;;5129629;27;20031;-73
2021/06/20 04:56:12;;;;;;;15.70;14.00;;;26.20;83.60;;;;;;5133152;27;20020;-74
2021/06/20 04:58:58;;;;;;;15.05;13.65;;;26.30;83.40;;;;;;5111801;28;20538;-70
2021/06/20 05:01:44;;;;;;;17.33;15.63;;;26.40;83.70;;;;;;5096850;27;20106;-71
2021/06/20 05:04:29;;;;;;;16.40;14.80;;;26.50;83.50;;;;;;5124751;27;20108;-70
2021/06/20 05:07:16;;;;;;;18.17;15.65;;;26.50;83.30;;;;;;5110898;28;20098;-70
2021/06/20 05:10:03;;;;;;;18.90;15.60;;;26.60;83.00;;;;;;5112493;28;20097;-70
2021/06/20 05:12:54;;;;;;;18.65;16.70;;;26.60;83.50;;;;;;5120779;27;20382;-70
2021/06/20 05:15:40;;;;;;;19.85;15.10;;;26.70;83.00;;;;;;5124792;27;20185;-70
2021/06/20 05:18:26;;;;;;;16.13;14.52;;;26.70;83.00;;;;;;5124956;27;20035;-70
2021/06/20 05:21:12;;;;;;;15.68;14.13;;;26.80;83.50;;;;;;5113610;27;20495;-69
2021/06/20 05:23:58;;;;;;;17.55;15.75;;;26.80;83.30;;;;;;5130766;27;20496;-69
2021/06/20 05:26:43;;;;;;;17.33;15.55;;;26.90;84.20;;;;;;5128198;27;20026;-69
2021/06/20 05:29:29;;;;;;;17.25;15.48;;;26.90;84.40;;;;;;5131391;27;20047;-69
2021/06/20 05:32:15;;;;;;;19.58;15.55;;;27.10;84.30;;;;;;5128002;27;20501;-69
2021/06/20 05:35:01;;;;;;;17.92;16.15;;;27.10;83.80;;;;;;5132394;27;20356;-69
2021/06/20 05:37:47;;;;;;;19.98;16.27;;;27.20;83.90;;;;;;5126386;27;20118;-69
2021/06/20 05:40:35;;;;;;;18.70;16.73;;;27.30;84.00;;;;;;5111202;28;20034;-69
2021/06/20 05:43:20;;;;;;;18.60;16.50;;;27.30;83.60;;;;;;5110802;28;20382;-69
2021/06/20 05:46:06;;;;;;;18.33;16.52;;;27.40;84.70;;;;;;5111239;28;20028;-69
2021/06/20 05:48:53;;;;;;;20.02;17.45;;;27.50;83.50;;;;;;5128434;27;20042;-69
2021/06/20 05:51:38;;;;;;;17.98;16.15;;;27.60;82.50;;;;;;5128293;27;20027;-68
2021/06/20 05:54:24;;;;;;;19.10;17.13;;;27.70;83.40;;;;;;5132427;27;20102;-69
2021/06/20 05:57:10;;;;;;;19.95;18.08;;;27.80;83.30;;;;;;5109759;28;20042;-69
2021/06/20 05:59:56;;;;;;;18.48;16.42;;;27.90;82.20;;;;;;5110424;28;20032;-69
2021/06/20 06:02:42;;;;;;;18.90;17.02;;;27.90;82.40;;;;;;5108339;27;20851;-70
2021/06/20 06:05:26;;;;;;;;;;;28.00;82.00;;;;;;5092472;28;20047;-69
2021/06/20 06:08:10;;;;;;;20.23;18.43;;;28.00;82.00;;;;;;5105748;28;19914;-69
2021/06/20 06:10:54;;;;;;;19.70;17.90;;;28.10;81.70;;;;;;5112278;28;20553;-70
2021/06/20 06:13:38;;;;;;;18.42;16.63;;;28.10;82.50;;;;;;5111130;27;20039;-69
2021/06/20 06:16:22;;;;;;;19.35;17.40;;;28.20;81.90;;;;;;5126083;27;20130;-69
2021/06/20 06:19:07;;;;;;;19.27;17.35;;;28.30;81.30;;;;;;5108811;28;20518;-69
2021/06/20 06:21:51;;;;;;;21.08;18.60;;;28.40;81.60;;;;;;5106057;27;20536;-70
2021/06/20 06:24:35;;;;;;;19.50;17.67;;;28.40;80.80;;;;;;5132883;27;20042;-69
2021/06/20 06:27:19;;;;;;;21.55;19.30;;;28.50;80.60;;;;;;5112344;27;20054;-69
2021/06/20 06:30:04;;;;;;;;;;;28.60;80.80;;;;;;5105675;28;20047;-69
2021/06/20 06:32:49;;;;;;;19.60;17.55;;;28.70;80.70;;;;;;5105718;27;19914;-70
2021/06/20 06:35:33;;;;;;;21.45;18.83;;;28.70;79.80;;;;;;5132853;27;20038;-68
2021/06/20 06:38:16;;;;;;;20.30;18.40;;;28.90;80.00;;;;;;5110623;28;20039;-69
2021/06/20 06:41:00;;;;;;;20.48;18.48;;;29.00;79.30;;;;;;5097052;28;20486;-69
2021/06/20 06:43:45;;;;;;;20.55;18.48;;;29.10;78.80;;;;;;5129350;27;20046;-69
2021/06/20 06:46:30;;;;;;;19.83;17.90;;;29.10;78.50;;;;;;5116368;27;20217;-69
2021/06/20 06:49:14;;;;;;;22.75;19.45;;;29.20;78.70;;;;;;5102864;28;20052;-69
2021/06/20 06:51:58;;;;;;;20.58;17.90;;;29.30;78.60;;;;;;5110635;28;20629;-68
2021/06/20 06:54:51;;;;;;;22.40;19.08;;;29.40;78.20;;;;;;5096533;28;20050;-69
2021/06/20 06:57:35;;;;;;;20.10;18.00;;;29.50;77.60;;;;;;5111496;28;20174;-69
2021/06/20 07:00:19;;;;;;;20.70;18.08;;;29.60;77.10;;;;;;5111902;28;20030;-69
2021/06/20 07:03:03;;;;;;;20.73;18.23;;;29.70;77.40;;;;;;5095325;28;20042;-69
2021/06/20 07:05:47;;;;;;;20.38;18.50;;;29.90;77.40;;;;;;5112055;28;20095;-69
2021/06/20 07:08:31;;;;;;;19.80;17.85;;;29.90;76.50;;;;;;5121235;28;20544;-70
2021/06/20 07:11:15;;;;;;;19.65;17.75;;;30.00;76.10;;;;;;5093082;28;20039;-70
2021/06/20 07:14:00;;;;;;;18.98;17.15;;;30.10;76.00;;;;;;5116283;28;20119;-70
2021/06/20 07:16:43;;;;;;;20.92;19.02;;;30.20;75.20;;;;;;5111678;27;20439;-69
2021/06/20 07:19:28;;;;;;;20.55;18.55;;;30.20;74.90;;;;;;5117095;28;20091;-69
2021/06/20 07:22:12;;;;;;;22.00;19.75;;;30.30;74.40;;;;;;5100055;28;20035;-68
2021/06/20 07:24:56;;;;;;;20.50;18.60;;;30.40;74.70;;;;;;5118599;28;20038;-69
2021/06/20 07:27:40;;;;;;;22.27;20.00;;;30.40;75.50;;;;;;5116951;28;20096;-70
2021/06/20 07:30:26;;;;;;;;;;;30.50;74.40;;;;;;5117637;27;20123;-69
2021/06/20 07:33:10;;;;;;;21.25;19.00;;;30.50;74.80;;;;;;5128489;27;20269;-70
2021/06/20 07:35:57;;;;;;;21.42;19.38;;;30.60;74.80;;;;;;5118085;27;20026;-69
2021/06/20 07:38:41;;;;;;;21.25;19.27;;;30.70;74.30;;;;;;5112260;28;20035;-69
2021/06/20 07:41:27;;;;;;;21.08;19.05;;;30.80;74.20;;;;;;5109407;27;20568;-69
2021/06/20 07:44:11;;;;;;;22.05;19.85;;;30.90;74.20;;;;;;5113473;27;20494;-69
2021/06/20 07:46:55;;;;;;;22.83;20.52;;;31.00;73.80;;;;;;5113078;27;20115;-69
2021/06/20 07:49:40;;;;;;;22.75;20.55;;;31.10;73.40;;;;;;5114617;27;20054;-69
2021/06/20 07:52:23;;;;;;;22.50;20.27;;;31.10;72.80;;;;;;5116128;27;20030;-71
2021/06/20 07:55:09;;;;;;;21.73;19.73;;;31.20;73.40;;;;;;5116593;27;20046;-70
2021/06/20 07:57:53;;;;;;;22.98;21.08;;;31.20;72.70;;;;;;5117497;27;20034;-70
2021/06/20 08:00:37;;;;;;;22.02;20.13;;;31.20;72.70;;;;;;5124934;27;20042;-70
2021/06/20 08:03:21;;;;;;;23.52;21.30;;;31.30;72.50;;;;;;5123348;27;20034;-70
2021/06/20 08:05:46;;;;;;;24.10;21.90;;;31.30;72.30;;;;;;5120666;27;20031;-70
2021/06/20 08:08:31;;;;;;;23.10;21.00;;;31.40;72.50;;;;;;5113864;27;20042;-70
2021/06/20 08:11:14;;;;;;;22.55;20.00;;;31.40;71.70;;;;;;5121351;27;20123;-70
2021/06/20 08:13:59;;;;;;;22.13;19.83;;;31.50;71.80;;;;;;5128999;27;20552;-70
2021/06/20 08:16:44;;;;;;;20.98;19.05;;;31.50;72.00;;;;;;5121347;27;20082;-70
2021/06/20 08:19:28;;;;;;;21.27;19.38;;;31.70;72.20;;;;;;5097257;28;20074;-70
2021/06/20 08:22:12;;;;;;;;;;;31.70;71.30;;;;;;5124541;27;20550;-70
2021/06/20 08:24:56;;;;;;;21.60;19.38;;;31.80;71.90;;;;;;5105614;27;19913;-70
2021/06/20 08:27:41;;;;;;;;;;;31.90;71.40;;;;;;5118117;27;20041;-69
2021/06/20 08:30:25;;;;;;;20.63;18.67;;;32.00;71.20;;;;;;5115327;27;20382;-70
2021/06/20 08:33:09;;;;;;;22.67;18.35;;;32.10;69.70;;;;;;5099043;28;20088;-69
2021/06/20 08:35:53;;;;;;;19.70;17.85;;;32.10;68.60;;;;;;5122141;27;20039;-70
2021/06/20 08:38:37;;;;;;;19.98;18.17;;;32.20;68.70;;;;;;5113197;28;20038;-70
2021/06/20 08:41:22;;;;;;;18.48;16.67;;;32.20;68.70;;;;;;5119617;27;20051;-70
2021/06/20 08:44:18;;;;;;;20.67;17.33;;;32.30;67.50;;;;;;5125424;27;20038;-69
2021/06/20 08:47:04;;;;;;;17.85;16.10;;;32.40;68.10;;;;;;5105993;27;20042;-69
2021/06/20 08:49:48;;;;;;;17.95;16.05;;;32.40;66.70;;;;;;5119708;27;20054;-69
2021/06/20 08:52:32;;;;;;;18.02;16.33;;;32.40;67.20;;;;;;5113297;27;20072;-69
2021/06/20 08:55:16;;;;;;;16.88;15.20;;;32.50;66.80;;;;;;5131328;27;20555;-69
2021/06/20 08:58:21;;;;;;;17.33;15.55;;;32.50;67.10;;;;;;5109221;28;20027;-68
2021/06/20 09:01:07;;;;;;;17.02;15.52;;;32.70;66.80;;;;;;5113613;27;20440;-70
2021/06/20 09:03:51;;;;;;;17.33;15.63;;;32.70;65.90;;;;;;5113716;27;20054;-70
2021/06/20 09:06:35;;;;;;;;;;;32.90;65.50;;;;;;5113453;27;20545;-69
2021/06/20 09:09:28;;;;;;;16.15;14.75;;;33.00;66.20;;;;;;5110840;27;19995;-69
2021/06/20 09:12:14;;;;;;;14.32;12.40;;;33.00;64.50;;;;;;5107075;27;20091;-70
2021/06/20 09:15:04;;;;;;;12.85;11.30;;;33.10;63.70;;;;;;5119907;27;20080;-69
2021/06/20 09:17:57;;;;;;;13.80;12.18;;;33.20;62.30;;;;;;5113331;27;20535;-69
2021/06/20 09:20:44;;;;;;;13.00;11.70;;;33.30;61.30;;;;;;5110493;27;20119;-69
2021/06/20 09:23:39;;;;;;;13.77;12.38;;;33.30;59.50;;;;;;5112757;27;20038;-68
2021/06/20 09:26:42;;;;;;;13.68;12.25;;;33.40;59.40;;;;;;5114456;27;20084;-68
2021/06/20 09:29:36;;;;;;;12.27;11.07;;;33.40;59.80;;;;;;5118435;27;20095;-68
2021/06/20 09:32:21;;;;;;;13.57;11.20;;;33.50;59.30;;;;;;5114679;27;20186;-68
2021/06/20 09:35:06;;;;;;;11.50;10.30;;;33.50;59.30;;;;;;5116321;27;20087;-68
2021/06/20 09:37:55;;;;;;;12.27;10.02;;;33.50;57.40;;;;;;5113714;27;20235;-68
2021/06/20 09:40:39;;;;;;;10.57;9.55;;;33.50;56.70;;;;;;5094368;27;20035;-68
2021/06/20 09:43:23;;;;;;;;;;;33.50;57.00;;;;;;5122617;27;20038;-68
2021/06/20 09:46:10;;;;;;;12.02;10.15;;;33.50;57.20;;;;;;5116134;27;19915;-70
2021/06/20 09:48:54;;;;;;;10.80;8.90;;;33.50;57.20;;;;;;5115377;27;20034;-69
2021/06/20 09:51:39;;;;;;;;;;;33.50;55.50;;;;;;5120514;27;20077;-69
2021/06/20 09:54:30;;;;;;;10.10;8.52;;;33.50;56.70;;;;;;5111221;27;19977;-69
2021/06/20 09:57:16;;;;;;;10.02;9.02;;;33.60;55.60;;;;;;5091046;28;20100;-70
2021/06/20 10:00:04;;;;;;;10.68;8.88;;;33.60;55.20;;;;;;5114813;27;20509;-69
2021/06/20 10:02:48;;;;;;;13.05;8.73;;;33.70;55.10;;;;;;5106559;27;20077;-69
2021/06/20 10:05:32;;;;;;;;;;;33.70;55.00;;;;;;5114749;27;20050;-69
2021/06/20 10:08:16;;;;;;;9.60;8.27;;;33.80;55.70;;;;;;5105513;28;19914;-69
2021/06/20 10:11:02;;;;;;;14.60;9.10;;;33.80;55.50;;;;;;5113211;27;20043;-68
2021/06/20 10:13:48;;;;;;;10.90;8.73;;;33.80;54.90;;;;;;5116233;27;20494;-69
2021/06/20 10:16:38;;;;;;;9.70;8.73;;;33.80;54.60;;;;;;5118687;27;20036;-70
2021/06/20 10:19:26;;;;;;;12.88;8.60;;;33.80;54.20;;;;;;5109595;27;20110;-69
2021/06/20 10:22:16;;;;;;;10.93;8.77;;;33.80;54.20;;;;;;5111881;27;20035;-69
2021/06/20 10:25:02;;;;;;;11.32;8.95;;;33.80;54.40;;;;;;5103653;27;20505;-69
2021/06/20 10:28:01;;;;;;;10.57;8.32;;;33.80;53.70;;;;;;5102021;27;20054;-69
2021/06/20 10:30:48;;;;;;;15.27;8.52;;;33.80;54.00;;;;;;5113708;27;20104;-69
2021/06/20 10:33:37;;;;;;;12.52;8.00;;;33.80;53.80;;;;;;5110137;27;20604;-69
2021/06/20 10:36:22;;;;;;;16.73;8.98;;;33.80;53.80;;;;;;5114167;27;20060;-69
2021/06/20 10:39:13;;;;;;;10.60;9.35;;;33.80;54.60;;;;;;5111094;27;20202;-69
2021/06/20 10:42:10;;;;;;;13.52;9.73;;;33.90;54.40;;;;;;5115887;27;20065;-69
2021/06/20 10:44:56;;;;;;;12.65;9.45;;;34.00;54.70;;;;;;5108760;27;20023;-69
2021/06/20 10:47:43;;;;;;;17.55;9.40;;;33.90;54.10;;;;;;5097983;27;20055;-69
2021/06/20 10:50:38;;;;;;;15.38;9.13;;;33.90;54.00;;;;;;5116754;27;20121;-69
2021/06/20 10:53:27;;;;;;;12.23;9.63;;;34.00;54.10;;;;;;5092099;27;20051;-71
2021/06/20 10:56:28;;;;;;;15.73;9.85;;;34.00;54.50;;;;;;5111497;27;20027;-70
2021/06/20 10:59:22;;;;;;;12.82;8.95;;;34.00;54.20;;;;;;5110788;27;20032;-70
2021/06/20 11:02:22;;;;;;;17.98;9.80;;;34.00;54.60;;;;;;5105557;27;20392;-70
2021/06/20 11:05:08;;;;;;;15.80;9.88;;;34.00;54.20;;;;;;5114089;28;20055;-71
2021/06/20 11:08:04;;;;;;;16.27;9.77;;;34.00;54.10;;;;;;5106798;28;20027;-69
2021/06/20 11:11:01;;;;;;;14.80;9.57;;;34.10;54.70;;;;;;5094504;28;20040;-70
2021/06/20 11:14:09;;;;;;;14.15;8.45;;;34.10;55.40;;;;;;5103250;28;20036;-71
2021/06/20 11:17:05;;;;;;;16.85;9.50;;;34.10;54.60;;;;;;5107671;28;20032;-70
2021/06/20 11:19:51;;;;;;;19.00;9.35;;;34.20;54.20;;;;;;5118703;28;20019;-71
2021/06/20 11:22:37;;;;;;;14.13;9.05;;;34.30;54.10;;;;;;5108389;28;20066;-70
2021/06/20 11:25:26;;;;;;;17.52;9.15;;;34.30;53.80;;;;;;5109837;28;20544;-73
2021/06/20 11:28:18;;;;;;;15.70;8.77;;;34.40;53.70;;;;;;5107964;28;20031;-75
2021/06/20 11:31:09;;;;;;;18.38;7.97;;;34.40;53.40;;;;;;5094706;28;20036;-77
2021/06/20 11:33:56;;;;;;;14.50;8.00;;;34.40;53.10;;;;;;5093418;28;20062;-73
2021/06/20 11:36:42;;;;;;;19.02;8.98;;;34.40;52.80;;;;;;5108366;28;20031;-73
2021/06/20 11:39:35;;;;;;;22.10;8.85;;;34.40;52.70;;;;;;5109588;28;20035;-73
2021/06/20 11:42:48;;;;;;;15.20;8.38;;;34.40;52.30;;;;;;5112530;28;20050;-73
2021/06/20 11:45:36;;;;;;;20.30;8.68;;;34.40;52.50;;;;;;5112395;28;20067;-73
2021/06/20 11:48:22;;;;;;;18.52;8.60;;;34.50;51.80;;;;;;5114290;28;20026;-73
2021/06/20 11:51:08;;;;;;;14.63;7.70;;;34.60;51.90;;;;;;5093847;28;20039;-73
2021/06/20 11:54:22;;;;;;;14.57;8.57;;;34.60;51.70;;;;;;5070946;28;20047;-74
2021/06/20 11:57:08;;;;;;;15.82;8.32;;;34.70;52.30;;;;;;5104815;27;20062;-73
2021/06/20 11:59:53;;;;;;;15.95;8.93;;;34.70;52.20;;;;;;5112324;27;20027;-74
2021/06/20 12:02:40;;;;;;;10.68;7.35;;;34.60;51.50;;;;;;5119266;27;20391;-74
2021/06/20 12:05:26;;;;;;;22.67;8.88;;;34.60;51.60;;;;;;5103488;27;20075;-74
2021/06/20 12:08:10;;;;;;;13.60;6.85;;;34.70;50.80;;;;;;5106097;27;20452;-78
2021/06/20 12:10:54;;;;;;;11.30;6.93;;;34.70;50.80;;;;;;5116070;27;20062;-77
2021/06/20 12:13:39;;;;;;;11.95;7.50;;;34.70;50.80;;;;;;5116417;27;20030;-75
2021/06/20 12:16:24;;;;;;;15.68;8.07;;;34.80;50.30;;;;;;5129246;27;20126;-74
2021/06/20 12:19:13;;;;;;;13.27;6.90;;;34.70;50.30;;;;;;5116093;27;20091;-72
2021/06/20 12:22:05;;;;;;;12.75;7.53;;;34.80;50.10;;;;;;5110012;27;20035;-72
2021/06/20 12:24:56;;;;;;;16.40;7.35;;;34.80;50.00;;;;;;5096079;28;20050;-71
2021/06/20 12:27:40;;;;;;;12.50;7.57;;;34.80;49.80;;;;;;5121430;27;20038;-72
2021/06/20 12:30:25;;;;;;;14.00;7.97;;;34.90;49.30;;;;;;5119008;27;20456;-72
2021/06/20 12:33:11;;;;;;;14.82;8.07;;;34.90;49.20;;;;;;5118696;27;20034;-70
2021/06/20 12:36:01;;;;;;;17.02;6.72;;;35.00;49.20;;;;;;5099277;28;20153;-70
2021/06/20 12:38:52;;;;;;;13.20;6.47;;;35.10;48.80;;;;;;5112651;28;20042;-70
2021/06/20 12:41:37;;;;;;;13.63;7.60;;;35.10;48.20;;;;;;5112718;28;20070;-72
2021/06/20 12:44:21;;;;;;;13.70;7.43;;;35.20;48.20;;;;;;5120767;27;20080;-70
2021/06/20 12:47:06;;;;;;;13.50;7.18;;;35.30;48.10;;;;;;5082695;28;20497;-69
2021/06/20 12:49:51;;;;;;;13.63;6.47;;;35.30;48.20;;;;;;5114185;28;20038;-69
2021/06/20 12:52:37;;;;;;;13.45;7.28;;;35.30;47.90;;;;;;5120569;27;20026;-72
2021/06/20 12:55:23;;;;;;;14.40;6.85;;;35.20;48.00;;;;;;5134565;27;20026;-72
2021/06/20 12:58:10;;;;;;;10.88;6.57;;;35.10;48.10;;;;;;5115455;27;20061;-75
2021/06/20 13:00:59;;;;;;;16.00;7.25;;;35.00;48.30;;;;;;5108082;28;20553;-71
2021/06/20 13:03:43;;;;;;;14.02;6.80;;;35.00;48.80;;;;;;5105051;28;20107;-73
2021/06/20 13:06:32;;;;;;;11.82;6.57;;;35.00;48.50;;;;;;5113197;27;20058;-72
2021/06/20 13:08:58;;;;;;;13.23;6.75;;;35.00;48.50;;;;;;5100617;27;20160;-72
2021/06/20 13:11:24;;;;;;;10.38;6.80;;;35.00;48.30;;;;;;5090156;28;20199;-71
2021/06/20 13:13:49;;;;;;;13.63;7.45;;;35.10;48.20;;;;;;5117954;27;20371;-72
2021/06/20 13:16:15;;;;;;;15.18;7.68;;;35.20;48.20;;;;;;5096906;28;20589;-73
2021/06/20 13:18:40;;;;;;;10.60;7.28;;;35.30;48.40;;;;;;5107424;28;20020;-72
2021/06/20 13:21:06;;;;;;;12.93;9.05;;;35.30;48.40;;;;;;5110261;27;20058;-72
2021/06/20 13:23:31;;;;;;;13.98;7.53;;;35.40;48.60;;;;;;5113653;27;20023;-70
2021/06/20 13:25:57;;;;;;;10.07;6.63;;;35.50;48.20;;;;;;5107662;28;20099;-70
2021/06/20 13:28:23;;;;;;;15.25;7.60;;;35.70;48.00;;;;;;5108765;27;20038;-71
2021/06/20 13:30:48;;;;;;;10.75;6.70;;;35.70;47.40;;;;;;5116387;27;20038;-71
2021/06/20 13:33:14;;;;;;;14.85;7.20;;;35.80;47.40;;;;;;5103196;27;20338;-70
2021/06/20 13:35:39;;;;;;;10.57;6.03;;;35.80;47.40;;;;;;5110320;27;20905;-70
2021/06/20 13:38:05;;;;;;;16.73;7.20;;;35.90;47.40;;;;;;5104739;27;20168;-70
2021/06/20 13:40:30;;;;;;;11.35;6.18;;;35.90;46.80;;;;;;5115583;27;20034;-70
2021/06/20 13:42:56;;;;;;;10.48;6.53;;;36.00;46.40;;;;;;5108678;27;20387;-70
2021/06/20 13:45:24;;;;;;;11.00;6.63;;;35.90;46.10;;;;;;5094845;28;20460;-70
2021/06/20 13:47:51;;;;;;;11.85;6.82;;;35.80;46.30;;;;;;5108350;27;20468;-70
2021/06/20 13:50:17;;;;;;;9.85;6.03;;;35.80;46.60;;;;;;5088957;28;20111;-72
2021/06/20 13:52:43;;;;;;;11.73;6.25;;;36.00;46.70;;;;;;5116043;27;20114;-70
2021/06/20 13:55:10;;;;;;;10.05;6.35;;;36.10;46.40;;;;;;5085626;28;20199;-70
2021/06/20 13:57:39;;;;;;;11.27;6.57;;;36.20;46.20;;;;;;5107650;27;20504;-70
2021/06/20 14:00:11;;;;;;;6.88;5.70;;;36.40;46.00;;;;;;5110299;27;20023;-70
2021/06/20 14:02:37;;;;;;;10.77;6.88;;;36.40;45.90;;;;;;5107561;27;20040;-70
2021/06/20 14:05:04;;;;;;;8.88;6.22;;;36.40;45.80;;;;;;5112253;27;20526;-70